Time;durP1;ratioP1;P1;durP2;ratioP2;P2;SDS_P1;SDS_P2;PMS_P1;PMS_P2;Temp;Humidity;BMP_temperature;BMP_pressure;BME280_temperature;BME280_humidity;BME280_pressure;Samples;Min_cycle;Max_cycle;Signal;HPM_P1;HPM_P2
2021/09/16 19:01:06;;;;;;;;;;;;;;;9.73;97.07;101066.22;1677063;85;20969;-51
2021/09/16 19:03:36;;;;;;;134.30;28.40;;;;;;;9.67;97.51;101064.94;1668974;83;20089;-52
2021/09/16 19:06:06;;;;;;;165.82;30.80;;;;;;;9.63;97.65;101073.16;1697700;83;21166;-51
2021/09/16 19:08:35;;;;;;;99.70;29.63;;;;;;;9.59;97.70;101071.88;1700724;82;20946;-54
2021/09/16 19:11:04;;;;;;;121.20;30.17;;;;;;;9.55;97.73;101067.14;1697409;83;21046;-52
2021/09/16 19:13:34;;;;;;;119.08;51.50;;;;;;;9.48;97.74;101062.45;1696003;84;21674;-53
2021/09/16 19:16:03;;;;;;;105.25;33.48;;;;;;;9.44;97.68;101065.05;1696890;82;21080;-53
2021/09/16 19:18:32;;;;;;;159.87;50.95;;;;;;;9.40;97.60;101074.52;1697034;84;21556;-52
2021/09/16 19:21:00;;;;;;;114.05;36.10;;;;;;;9.37;97.71;101074.54;1697823;84;21107;-51
2021/09/16 19:23:28;;;;;;;130.47;37.17;;;;;;;9.34;97.84;101070.68;1675974;84;20954;-54
2021/09/16 19:25:56;;;;;;;126.87;36.58;;;;;;;9.30;97.86;101067.69;1689864;83;21067;-54
2021/09/16 19:28:27;;;;;;;114.17;27.82;;;;;;;9.26;97.99;101067.27;1669072;84;21554;-51
2021/09/16 19:30:57;;;;;;;105.32;26.15;;;;;;;9.24;98.32;101071.59;1688955;84;21041;-54
2021/09/16 19:33:25;;;;;;;92.22;23.67;;;;;;;9.23;98.51;101071.16;1692352;84;21629;-54
2021/09/16 19:35:53;;;;;;;116.77;25.23;;;;;;;9.20;98.84;101063.81;1697576;83;21052;-52
2021/09/16 19:38:19;;;;;;;113.52;25.17;;;;;;;9.18;99.03;101062.97;1683108;83;21150;-52
2021/09/16 19:40:47;;;;;;;114.30;24.12;;;;;;;9.18;99.34;101063.41;1695143;83;20924;-53
2021/09/16 19:43:14;;;;;;;127.55;21.90;;;;;;;9.17;99.51;101067.70;1696043;83;21154;-51
2021/09/16 19:45:42;;;;;;;109.95;22.35;;;;;;;9.18;99.62;101062.97;1695643;84;20897;-53
2021/09/16 19:48:10;;;;;;;105.63;22.60;;;;;;;9.17;99.48;101061.25;1696675;84;20985;-55
2021/09/16 19:50:37;;;;;;;74.37;20.60;;;;;;;9.12;99.35;101062.98;1695631;83;20930;-53
2021/09/16 19:53:05;;;;;;;74.97;18.62;;;;;;;9.06;99.24;101062.56;1676588;84;21500;-54
2021/09/16 19:55:33;;;;;;;66.30;18.57;;;;;;;9.01;99.19;101060.44;1675226;84;21114;-52
2021/09/16 19:58:00;;;;;;;63.80;17.17;;;;;;;8.95;99.18;101060.45;1696411;84;21495;-54
2021/09/16 20:00:27;;;;;;;76.95;19.57;;;;;;;8.89;99.18;101058.73;1699087;84;21533;-51
2021/09/16 20:02:55;;;;;;;58.55;18.62;;;;;;;8.85;99.40;101054.89;1696619;83;21005;-52
2021/09/16 20:05:22;;;;;;;45.63;16.32;;;;;;;8.80;99.63;101058.77;1697932;84;21024;-54
2021/09/16 20:07:50;;;;;;;53.08;16.85;;;;;;;8.79;99.81;101054.88;1697162;84;20958;-53
2021/09/16 20:10:18;;;;;;;62.20;17.50;;;;;;;8.75;99.84;101057.47;1697210;84;21052;-54
2021/09/16 20:12:45;;;;;;;79.27;20.43;;;;;;;8.73;99.99;101057.91;1697693;84;20918;-53
2021/09/16 20:15:15;;;;;;;90.15;22.15;;;;;;;8.70;100.00;101055.74;1699095;84;20913;-52
2021/09/16 20:17:42;;;;;;;89.28;20.37;;;;;;;8.69;100.00;101050.16;1697857;84;21494;-54
2021/09/16 20:20:10;;;;;;;79.85;19.95;;;;;;;8.67;100.00;101046.30;1697350;83;20997;-54
2021/09/16 20:22:39;;;;;;;104.40;24.02;;;;;;;8.66;100.00;101052.74;1697070;81;21064;-53
2021/09/16 20:25:10;;;;;;;104.75;24.15;;;;;;;8.64;100.00;101050.18;1699869;83;21016;-52
2021/09/16 20:27:39;;;;;;;103.05;19.98;;;;;;;8.63;100.00;101045.44;1699566;82;20996;-51
2021/09/16 20:30:10;;;;;;;102.87;23.22;;;;;;;8.65;100.00;101052.31;1696404;84;21000;-53
2021/09/16 20:32:36;;;;;;;117.57;24.37;;;;;;;8.63;100.00;101050.59;1673091;84;21103;-54
2021/09/16 20:35:06;;;;;;;143.32;28.23;;;;;;;8.65;100.00;101053.61;1697518;83;21031;-55
2021/09/16 20:37:33;;;;;;;153.75;28.42;;;;;;;8.67;100.00;101050.17;1692018;83;21032;-54
2021/09/16 20:40:00;;;;;;;137.15;25.60;;;;;;;8.69;100.00;101057.48;1691947;83;20961;-53
2021/09/16 20:42:26;;;;;;;168.25;26.87;;;;;;;8.70;100.00;101062.20;1699274;84;20972;-53
2021/09/16 20:44:52;;;;;;;141.43;27.65;;;;;;;8.69;100.00;101056.19;1695371;83;21154;-52
2021/09/16 20:47:19;;;;;;;165.68;28.05;;;;;;;8.69;100.00;101067.80;1694702;84;21007;-54
2021/09/16 20:49:45;;;;;;;146.45;25.43;;;;;;;8.71;100.00;101061.33;1698747;84;21020;-53
2021/09/16 20:52:11;;;;;;;149.62;26.77;;;;;;;8.72;100.00;101067.80;1695396;83;21048;-54
2021/09/16 20:54:39;;;;;;;162.50;27.95;;;;;;;8.73;100.00;101064.80;1696019;83;20994;-54
2021/09/16 20:57:08;;;;;;;143.32;24.87;;;;;;;8.74;100.00;101070.39;1697710;82;21154;-53
2021/09/16 20:59:36;;;;;;;145.43;24.67;;;;;;;8.74;100.00;101064.78;1672279;84;21561;-53
2021/09/16 21:10:41;;;;;;;147.87;24.40;;;;;;;8.77;100.00;101058.77;1697602;84;20989;-51
2021/09/16 21:13:07;;;;;;;141.03;25.43;;;;;;;8.75;100.00;101062.62;1696299;84;21159;-53
2021/09/16 21:15:35;;;;;;;145.40;21.82;;;;;;;8.75;100.00;101059.20;1696859;84;21005;-54
2021/09/16 21:18:03;;;;;;;97.80;23.18;;;;;;;8.74;100.00;101060.06;1697179;84;20953;-51
2021/09/16 21:20:31;;;;;;;132.12;25.37;;;;;;;8.73;100.00;101065.64;1697438;83;21005;-51
2021/09/16 21:23:00;;;;;;;135.88;26.73;;;;;;;8.70;100.00;101066.94;1697738;84;20953;-52
2021/09/16 21:25:26;;;;;;;149.85;23.80;;;;;;;8.71;100.00;101072.95;1696008;84;21764;-51
2021/09/16 21:27:54;;;;;;;102.30;20.95;;;;;;;8.71;100.00;101065.20;1695717;84;21550;-51
2021/09/16 21:30:22;;;;;;;135.07;25.48;;;;;;;8.67;100.00;101064.37;1697227;83;21010;-54
2021/09/16 21:32:49;;;;;;;141.32;27.67;;;;;;;8.66;100.00;101066.52;1698112;84;21071;-54
2021/09/16 21:35:17;;;;;;;133.78;24.25;;;;;;;8.66;100.00;101063.94;1696903;84;21008;-52
2021/09/16 21:37:43;;;;;;;139.05;24.85;;;;;;;8.67;100.00;101061.79;1696220;83;21122;-53
2021/09/16 21:40:12;;;;;;;139.70;23.65;;;;;;;8.67;100.00;101068.66;1674201;84;20977;-51
2021/09/16 21:42:40;;;;;;;138.10;26.60;;;;;;;8.65;100.00;101058.77;1696419;84;21570;-53
2021/09/16 21:45:09;;;;;;;122.70;23.95;;;;;;;8.63;100.00;101065.23;1695214;84;21000;-52
2021/09/16 21:47:36;;;;;;;142.85;24.87;;;;;;;8.64;100.00;101061.80;1696912;84;20930;-53
2021/09/16 21:50:05;;;;;;;88.10;21.37;;;;;;;8.63;100.00;101066.53;1697530;84;20977;-53
2021/09/16 21:52:32;;;;;;;111.62;21.40;;;;;;;8.60;100.00;101065.24;1696072;84;21041;-50
2021/09/16 21:54:59;;;;;;;99.03;19.40;;;;;;;8.53;100.00;101061.80;1698383;84;21080;-54
2021/09/16 22:00:30;;;;;;;87.72;19.37;;;;;;;8.40;100.00;101058.73;1798078;79;22597;-51
2021/09/16 22:02:57;;;;;;;77.92;19.90;;;;;;;8.28;100.00;101059.17;1755223;80;20928;-50
2021/09/16 22:05:23;;;;;;;74.15;19.25;;;;;;;8.21;100.00;101058.75;1749953;81;21370;-51
2021/09/16 22:07:50;;;;;;;83.30;20.02;;;;;;;8.14;100.00;101053.13;1749608;81;20972;-52
2021/09/16 22:10:16;;;;;;;95.40;19.20;;;;;;;8.09;100.00;101066.45;1749668;82;20936;-53
2021/09/16 22:12:46;;;;;;;76.22;20.57;;;;;;;8.03;100.00;101063.42;1749599;80;20984;-54
2021/09/16 22:15:12;;;;;;;79.87;20.68;;;;;;;7.99;100.00;101060.42;1749703;82;20920;-52
2021/09/16 22:17:40;;;;;;;82.97;20.35;;;;;;;7.95;100.00;101056.96;1716324;82;20955;-52
2021/09/16 22:20:09;;;;;;;72.78;19.67;;;;;;;7.93;100.00;101053.97;1716300;83;20923;-52
2021/09/16 22:22:37;;;;;;;67.70;20.95;;;;;;;7.87;100.00;101054.80;1688485;83;21430;-52
2021/09/16 22:25:07;;;;;;;64.60;20.45;;;;;;;7.80;100.00;101055.66;1708932;84;21556;-52
2021/09/16 22:27:35;;;;;;;78.90;21.23;;;;;;;7.75;100.00;101052.64;1708891;82;20951;-50
2021/09/16 22:30:09;;;;;;;73.22;21.15;;;;;;;7.73;100.00;101054.77;1709172;83;21916;-54
2021/09/16 22:32:35;;;;;;;68.70;20.95;;;;;;;7.70;100.00;101050.90;1708952;84;20980;-53
2021/09/16 22:35:04;;;;;;;70.92;21.75;;;;;;;7.64;100.00;101054.30;1708939;84;21004;-51
2021/09/16 22:37:30;;;;;;;80.40;22.65;;;;;;;7.63;100.00;101053.87;1681280;84;21462;-52
2021/09/16 22:39:58;;;;;;;74.92;21.70;;;;;;;7.66;100.00;101062.06;1709035;84;21778;-51
2021/09/16 22:42:27;;;;;;;77.70;22.40;;;;;;;7.68;100.00;101058.61;1709087;83;21560;-52
2021/09/16 22:44:53;;;;;;;112.45;23.05;;;;;;;7.70;100.00;101059.47;1709019;83;21488;-52
2021/09/16 22:47:19;;;;;;;138.15;25.80;;;;;;;7.73;100.00;101060.80;1708827;84;21012;-54
2021/09/16 22:49:47;;;;;;;120.05;23.70;;;;;;;7.76;100.00;101054.36;1708884;84;20964;-53
2021/09/16 22:52:13;;;;;;;122.82;22.27;;;;;;;7.83;100.00;101055.66;1709071;84;21010;-53
2021/09/16 22:54:41;;;;;;;109.40;24.50;;;;;;;7.86;100.00;101058.24;1709047;83;21532;-53
2021/09/16 22:57:08;;;;;;;86.80;19.87;;;;;;;7.87;100.00;101058.67;1709180;82;20896;-51
2021/09/16 22:59:34;;;;;;;68.10;20.68;;;;;;;7.88;100.00;101056.52;1702782;83;21029;-53
2021/09/16 23:02:01;;;;;;;51.53;19.12;;;;;;;7.87;100.00;101049.65;1696318;84;20976;-54
2021/09/16 23:04:27;;;;;;;63.48;19.50;;;;;;;7.87;100.00;101054.80;1696436;83;21011;-52
2021/09/16 23:06:53;;;;;;;47.98;19.42;;;;;;;7.84;100.00;101045.78;1696297;83;21007;-53
2021/09/16 23:09:20;;;;;;;52.67;19.32;;;;;;;7.80;100.00;101041.48;1696248;84;21003;-54
2021/09/16 23:11:49;;;;;;;59.58;20.23;;;;;;;7.77;100.00;101043.61;1695927;84;20948;-53
2021/09/16 23:14:16;;;;;;;47.27;18.65;;;;;;;7.72;100.00;101041.45;1695744;84;20972;-53
2021/09/16 23:16:45;;;;;;;67.37;19.23;;;;;;;7.69;100.00;101039.71;1695852;84;21047;-52
2021/09/16 23:19:12;;;;;;;52.38;17.98;;;;;;;7.66;100.00;101038.42;1695681;84;21162;-54
2021/09/16 23:21:40;;;;;;;80.47;21.40;;;;;;;7.65;100.00;101037.14;1695798;84;21007;-53
2021/09/16 23:24:07;;;;;;;96.50;24.45;;;;;;;7.64;100.00;101040.14;1695797;84;21019;-54
2021/09/16 23:26:35;;;;;;;127.00;22.98;;;;;;;7.65;100.00;101045.72;1695764;84;20936;-51
2021/09/16 23:29:01;;;;;;;142.22;27.13;;;;;;;7.67;100.00;101037.56;1695969;84;20948;-53
2021/09/16 23:31:28;;;;;;;119.37;24.37;;;;;;;7.71;100.00;101038.03;1696073;84;21988;-51
2021/09/16 23:33:54;;;;;;;100.45;22.70;;;;;;;7.74;100.00;101039.73;1695755;84;20988;-53
2021/09/16 23:36:20;;;;;;;80.65;21.48;;;;;;;7.72;100.00;101037.17;1696230;84;21046;-53
2021/09/16 23:38:48;;;;;;;76.55;19.12;;;;;;;7.71;100.00;101035.45;1695818;84;21041;-54
2021/09/16 23:41:16;;;;;;;67.42;19.75;;;;;;;7.69;100.00;101041.45;1695876;84;20960;-54
2021/09/16 23:43:44;;;;;;;83.17;18.75;;;;;;;7.68;100.00;101041.86;1695838;84;20960;-54
2021/09/16 23:46:11;;;;;;;47.80;18.42;;;;;;;7.68;100.00;101034.58;1695867;83;21419;-52
2021/09/16 23:48:38;;;;;;;91.55;19.50;;;;;;;7.71;100.00;101028.14;1695834;84;20977;-54
2021/09/16 23:51:06;;;;;;;113.40;22.77;;;;;;;7.69;100.00;101030.70;1695837;84;21019;-54
2021/09/16 23:53:32;;;;;;;77.70;19.02;;;;;;;7.67;100.00;101021.26;1695853;84;21035;-53
2021/09/16 23:55:59;;;;;;;89.97;19.52;;;;;;;7.69;100.00;101023.41;1696164;84;21134;-54
2021/09/16 23:58:26;;;;;;;126.22;20.68;;;;;;;7.68;100.00;101020.41;1665892;84;20972;-54
